createdAt,value
2023-08-23T00:02:05.038Z,22.23
2023-08-23T00:07:07.847Z,22.26
2023-08-23T00:12:12.340Z,22.50
2023-08-23T00:17:15.220Z,22.19
2023-08-23T00:22:18.045Z,22.18
2023-08-23T00:27:22.318Z,22.44
2023-08-23T00:32:25.169Z,22.36
2023-08-23T00:37:27.954Z,22.36
2023-08-23T00:42:32.291Z,22.31
2023-08-23T00:47:35.695Z,22.45
2023-08-23T00:52:52.154Z,22.13
2023-08-23T00:57:59.414Z,22.07
2023-08-23T01:03:02.638Z,22.09
2023-08-23T01:08:15.118Z,22.18
2023-08-23T01:13:29.366Z,22.16
2023-08-23T01:18:33.394Z,22.05
2023-08-23T01:23:38.370Z,22.15
2023-08-23T01:28:41.201Z,21.96
2023-08-23T01:33:49.511Z,22.18
2023-08-23T01:38:54.744Z,21.98
2023-08-23T01:43:57.500Z,21.97
2023-08-23T01:49:00.288Z,21.63
2023-08-23T01:54:04.662Z,21.42
2023-08-23T01:59:07.679Z,21.63
2023-08-23T02:04:10.467Z,21.65
2023-08-23T02:09:15.129Z,21.66
2023-08-23T02:14:17.979Z,21.31
2023-08-23T02:19:20.769Z,21.28
2023-08-23T02:24:24.901Z,21.32
2023-08-23T02:29:27.742Z,21.20
2023-08-23T02:34:30.599Z,21.31
2023-08-23T02:39:34.724Z,21.11
2023-08-23T02:44:38.061Z,21.32
2023-08-23T02:49:40.860Z,21.19
2023-08-23T02:54:47.273Z,21.31
2023-08-23T02:59:50.079Z,21.23
2023-08-23T03:04:53.768Z,21.11
2023-08-23T03:09:57.930Z,21.19
2023-08-23T03:15:00.795Z,21.30
2023-08-23T03:20:03.879Z,21.27
2023-08-23T03:25:10.329Z,20.99
2023-08-23T03:30:13.840Z,20.80
2023-08-23T03:35:17.803Z,21.06
2023-08-23T03:40:21.925Z,20.94
2023-08-23T03:45:24.679Z,21.01
2023-08-23T03:50:27.451Z,20.72
2023-08-23T03:55:32.200Z,20.90
2023-08-23T04:00:35.161Z,20.76
2023-08-23T04:05:41.974Z,20.44
2023-08-23T04:10:49.338Z,20.51
2023-08-23T04:15:52.135Z,20.76
2023-08-23T04:21:00.467Z,20.81
2023-08-23T04:26:05.309Z,20.91
2023-08-23T04:31:08.144Z,20.83
2023-08-23T04:36:25.100Z,20.90
2023-08-23T04:41:29.314Z,21.29
2023-08-23T04:46:32.119Z,21.32
2023-08-23T04:51:35.039Z,21.17
2023-08-23T04:56:40.016Z,21.10
2023-08-23T05:01:43.096Z,21.10
2023-08-23T05:06:46.002Z,21.11
2023-08-23T05:11:53.347Z,21.48
2023-08-23T05:16:57.356Z,21.27
2023-08-23T05:22:00.216Z,21.38
2023-08-23T05:27:04.512Z,21.71
2023-08-23T05:32:08.613Z,21.74
2023-08-23T05:37:11.568Z,21.93
2023-08-23T05:42:15.843Z,22.04
2023-08-23T05:47:18.681Z,21.83
2023-08-23T05:52:21.890Z,21.93
2023-08-23T05:57:26.072Z,21.93
2023-08-23T06:02:29.210Z,22.07
2023-08-23T06:07:32.047Z,22.71
2023-08-23T06:12:36.155Z,23.15
2023-08-23T06:17:38.986Z,23.05
2023-08-23T06:22:41.796Z,23.11
2023-08-23T06:27:46.781Z,23.02
2023-08-23T06:32:51.108Z,23.38
2023-08-23T06:37:54.191Z,23.19
2023-08-23T06:42:58.341Z,23.23
2023-08-23T06:48:01.206Z,23.75
2023-08-23T06:53:04.035Z,24.46
2023-08-23T06:58:08.761Z,24.19
2023-08-23T07:03:11.606Z,24.10
2023-08-23T07:08:14.440Z,23.32
2023-08-23T07:13:18.569Z,24.49
2023-08-23T07:18:21.332Z,25.22
2023-08-23T07:23:24.183Z,24.97
2023-08-23T07:28:29.480Z,26.19
2023-08-23T07:33:32.318Z,26.11
2023-08-23T07:38:35.195Z,27.03
2023-08-23T07:43:39.588Z,28.35
2023-08-23T07:48:42.556Z,27.07
2023-08-23T07:53:45.337Z,25.81
2023-08-23T07:58:49.612Z,26.54
2023-08-23T08:03:52.925Z,29.99
2023-08-23T08:08:55.734Z,31.51
2023-08-23T08:13:59.893Z,29.40
2023-08-23T08:19:02.670Z,27.33
2023-08-23T08:24:05.968Z,26.16
2023-08-23T08:29:10.089Z,26.09
2023-08-23T08:34:12.902Z,26.75
2023-08-23T08:39:15.712Z,25.92
2023-08-23T08:44:20.148Z,25.41
2023-08-23T08:49:22.934Z,26.17
2023-08-23T08:54:26.642Z,26.90
2023-08-23T08:59:31.587Z,26.56
2023-08-23T09:04:34.343Z,25.69
2023-08-23T09:09:37.423Z,25.64
2023-08-23T09:14:41.590Z,25.95
2023-08-23T09:19:44.380Z,25.80
2023-08-23T09:24:47.211Z,25.89
2023-08-23T09:29:54.660Z,26.31
2023-08-23T09:34:58.815Z,26.31
2023-08-23T09:40:01.827Z,26.36
2023-08-23T09:45:07.085Z,26.62
2023-08-23T09:50:11.356Z,27.20
2023-08-23T09:55:15.658Z,26.92
2023-08-23T10:00:20.646Z,26.22
2023-08-23T10:05:26.419Z,26.81
2023-08-23T10:10:32.915Z,27.13
2023-08-23T10:15:39.686Z,26.52
2023-08-23T10:20:44.525Z,26.99
2023-08-23T10:25:48.723Z,27.00
2023-08-23T10:31:01.084Z,27.18
2023-08-23T10:36:10.428Z,26.90
2023-08-23T10:41:18.599Z,27.25
2023-08-23T10:46:24.492Z,27.43
2023-08-23T10:51:27.355Z,26.53
2023-08-23T10:56:30.666Z,26.75
2023-08-23T11:01:35.013Z,27.45
2023-08-23T11:06:37.942Z,28.02
2023-08-23T11:11:40.712Z,27.88
2023-08-23T11:16:45.615Z,28.04
2023-08-23T11:21:48.521Z,27.86
2023-08-23T11:26:51.301Z,27.82
2023-08-23T11:31:56.818Z,27.47
2023-08-23T11:36:59.667Z,27.99
2023-08-23T11:42:03.745Z,28.15
2023-08-23T11:47:07.990Z,28.44
2023-08-23T11:52:11.522Z,28.28
2023-08-23T11:57:16.480Z,27.51
2023-08-23T12:02:20.648Z,28.21
2023-08-23T12:07:23.407Z,27.82
2023-08-23T12:12:26.403Z,28.84
2023-08-23T12:17:30.590Z,27.93
2023-08-23T12:22:33.369Z,27.99
2023-08-23T12:27:36.247Z,28.59
2023-08-23T12:32:40.519Z,27.93
2023-08-23T12:37:43.523Z,28.08
2023-08-23T12:42:46.301Z,27.87
2023-08-23T12:47:50.871Z,28.78
2023-08-23T12:52:54.038Z,28.84
2023-08-23T12:57:56.795Z,28.36
2023-08-23T13:03:01.306Z,28.61
2023-08-23T13:08:04.806Z,28.91
2023-08-23T13:13:07.746Z,28.85
2023-08-23T13:18:11.909Z,29.30
2023-08-23T13:23:14.925Z,29.14
2023-08-23T13:28:17.966Z,29.51
2023-08-23T13:33:22.092Z,29.56
2023-08-23T13:38:24.930Z,28.99
2023-08-23T13:43:28.480Z,29.65
2023-08-23T13:48:32.667Z,29.20
2023-08-23T13:53:35.758Z,29.46
2023-08-23T13:58:38.535Z,29.29
2023-08-23T14:03:42.662Z,29.60
2023-08-23T14:08:45.407Z,28.98
2023-08-23T14:13:48.202Z,29.43
2023-08-23T14:18:52.319Z,29.12
2023-08-23T14:23:55.091Z,29.17
2023-08-23T14:28:57.856Z,29.19
2023-08-23T14:34:01.986Z,29.58
2023-08-23T14:39:05.127Z,30.15
2023-08-23T14:44:08.045Z,29.77
2023-08-23T14:49:14.898Z,29.52
2023-08-23T14:54:17.705Z,29.38
2023-08-23T14:59:20.571Z,29.63
2023-08-23T15:04:24.770Z,29.82
2023-08-23T15:09:27.539Z,30.16
2023-08-23T15:14:30.329Z,30.06
2023-08-23T15:19:34.573Z,30.19
2023-08-23T15:24:42.302Z,29.32
2023-08-23T15:30:01.100Z,29.45
2023-08-23T15:35:11.188Z,29.18
2023-08-23T15:40:13.995Z,29.14
2023-08-23T15:45:19.611Z,29.17
2023-08-23T15:50:24.366Z,29.35
2023-08-23T15:55:27.738Z,29.33
2023-08-23T16:00:30.920Z,28.93
2023-08-23T16:05:35.052Z,28.92
2023-08-23T16:10:41.350Z,28.92
2023-08-23T16:15:44.250Z,28.55
2023-08-23T16:20:50.630Z,28.76
2023-08-23T16:25:56.354Z,28.55
2023-08-23T16:30:59.296Z,28.30
2023-08-23T16:36:04.006Z,28.28
2023-08-23T16:41:06.838Z,27.87
2023-08-23T16:46:09.949Z,27.66
2023-08-23T16:51:14.113Z,27.31
2023-08-23T16:56:16.841Z,27.16
2023-08-23T17:01:19.703Z,27.39
2023-08-23T17:06:24.371Z,27.31
2023-08-23T17:11:27.154Z,27.61
2023-08-23T17:16:31.002Z,27.39
2023-08-23T17:21:36.033Z,27.08
2023-08-23T17:26:38.838Z,26.96
2023-08-23T17:31:50.558Z,26.79
2023-08-23T17:36:54.973Z,26.86
2023-08-23T17:41:57.843Z,26.69
2023-08-23T17:47:06.371Z,26.82
2023-08-23T17:52:10.752Z,26.90
2023-08-23T17:57:13.525Z,26.97
2023-08-23T18:02:16.339Z,26.74
2023-08-23T18:07:20.502Z,26.94
2023-08-23T18:12:23.484Z,26.81
2023-08-23T18:17:26.332Z,26.91
2023-08-23T18:22:30.525Z,26.93
2023-08-23T18:27:33.391Z,27.16
2023-08-23T18:32:36.231Z,26.93
2023-08-23T18:37:40.523Z,26.42
2023-08-23T18:42:43.296Z,26.70
2023-08-23T18:47:48.153Z,26.56
2023-08-23T18:52:53.592Z,26.47
2023-08-23T18:57:56.428Z,26.23
2023-08-23T19:02:59.302Z,26.37
2023-08-23T19:08:03.622Z,26.31
2023-08-23T19:13:06.394Z,26.54
2023-08-23T19:18:10.013Z,26.20
2023-08-23T19:23:14.271Z,25.83
2023-08-23T19:28:17.134Z,25.82
2023-08-23T19:33:19.964Z,25.79
2023-08-23T19:38:24.210Z,25.97
2023-08-23T19:43:27.342Z,26.07
2023-08-23T19:48:33.393Z,25.65
2023-08-23T19:53:38.680Z,25.55
2023-08-23T19:58:41.775Z,25.69
2023-08-23T20:03:44.668Z,25.80
2023-08-23T20:08:48.981Z,25.80
2023-08-23T20:13:51.780Z,25.75
2023-08-23T20:18:56.124Z,25.77
2023-08-23T20:24:00.407Z,25.79
2023-08-23T20:29:03.402Z,25.41
2023-08-23T20:34:06.219Z,25.63
2023-08-23T20:39:10.341Z,25.35
2023-08-23T20:44:13.142Z,25.32
2023-08-23T20:49:15.989Z,25.53
2023-08-23T20:54:20.357Z,25.35
2023-08-23T20:59:23.156Z,25.29
2023-08-23T21:04:27.187Z,25.44
2023-08-23T21:09:31.568Z,25.22
2023-08-23T21:14:34.407Z,25.10
2023-08-23T21:19:37.244Z,24.99
2023-08-23T21:24:41.330Z,25.12
2023-08-23T21:29:44.061Z,25.09
2023-08-23T21:34:46.860Z,24.97
2023-08-23T21:39:57.689Z,25.00
2023-08-23T21:45:00.611Z,24.84
2023-08-23T21:50:03.530Z,24.99
2023-08-23T21:55:08.502Z,24.68
2023-08-23T22:00:13.367Z,24.83
2023-08-23T22:05:16.318Z,24.75
2023-08-23T22:10:20.686Z,24.42
2023-08-23T22:15:23.472Z,24.72
2023-08-23T22:20:28.016Z,24.64
2023-08-23T22:25:32.173Z,24.80
2023-08-23T22:30:34.963Z,24.30
2023-08-23T22:35:39.327Z,24.66
2023-08-23T22:40:50.364Z,24.56
2023-08-23T22:45:55.253Z,24.37
2023-08-23T22:50:58.219Z,24.77
2023-08-23T22:56:03.797Z,24.57
2023-08-23T23:01:06.602Z,24.49
2023-08-23T23:06:09.830Z,24.60
2023-08-23T23:11:13.957Z,24.71
2023-08-23T23:16:16.781Z,24.49
2023-08-23T23:21:20.076Z,24.45
2023-08-23T23:26:24.195Z,24.04
2023-08-23T23:31:27.018Z,24.15
2023-08-23T23:36:32.141Z,24.18
2023-08-23T23:41:36.287Z,23.73
2023-08-23T23:46:40.396Z,24.06
2023-08-23T23:51:43.167Z,24.13
2023-08-23T23:56:47.312Z,24.04
